P. B. Shah — WDB8609 — position and weather

sailwx.info

Track history (hours):
 
Tides and Currents Weather Stations Pressure Air Temp Water Temp Dewpoint Dewpoint Depression Visibility Wind Speed Wind Dir Waves Ship Positions

P. B. Shah

Owner: INGRAM BARGE COMPANY, Nashville, TN. More information available from US FCC via Universal Licensing System and Coast Guard Vessel Documentation Center.

Last reported at 2016-Feb-02 00:15 UTC. Time now 2016-Feb-09 13:46 UTC.
Position N 31°54' W 091°12'.

Length 46 m; draft 3.1 m.

Type: Towing. MMSI: 366961480.

Date/timePositionNaut miles runAvg speedWind from/ knotsBaromVisibWave heightAir tempDewpointWater temp
2016-Feb-02 00:15N 31°54' W 091°12'7 8.2
2016-Feb-01 23:26N 31°59' W 091°07'7 7.7
2016-Feb-01 22:33N 32°06' W 091°05'6 5.7
2016-Feb-01 21:33N 32°09' W 091°00'9 9.3
2016-Feb-01 20:33N 32°18' W 090°56'4 3.7
2016-Feb-01 19:33N 32°21' W 090°58'0 0.1
2016-Feb-01 18:33N 32°21' W 090°58'0 0.0
2016-Feb-01 17:33N 32°21' W 090°58'0 0.0
2016-Feb-01 16:33N 32°21' W 090°58'0 0.0
2016-Feb-01 15:33N 32°21' W 090°58'0 0.0
2016-Feb-01 14:33N 32°21' W 090°58'0 0.0
2016-Feb-01 13:33N 32°21' W 090°58'0 0.0
2016-Feb-01 12:33N 32°21' W 090°58'0 0.0
2016-Feb-01 11:33N 32°21' W 090°58'0 0.0
2016-Feb-01 10:33N 32°21' W 090°58'0 0.0
2016-Feb-01 09:33N 32°21' W 090°58'0 0.0
2016-Feb-01 08:33N 32°21' W 090°58'0 0.0
2016-Feb-01 07:33N 32°21' W 090°58'0 0.0
2016-Feb-01 06:33N 32°21' W 090°58'0 0.0
2016-Feb-01 05:33N 32°21' W 090°58'0 0.0
2016-Feb-01 04:33N 32°21' W 090°58'0 0.4
2016-Feb-01 03:33N 32°21' W 090°58'0 0.0
2016-Feb-01 02:33N 32°21' W 090°58'1 0.6
2016-Feb-01 01:33N 32°21' W 090°59'7 7.1
2016-Feb-01 00:33N 32°27' W 091°04'8 8.0
2016-Jan-31 23:32N 32°34' W 091°07'9 6.7
2016-Jan-31 22:11N 32°43' W 091°03'  
2016-Jan-25 04:03N 32°57' W 091°04'20 3.7
2016-Jan-24 22:33N 32°37' W 091°09'5 4.9
2016-Jan-24 21:33N 32°32' W 091°06'4 4.4
2016-Jan-24 20:33N 32°28' W 091°06'5 4.9
2016-Jan-24 19:33N 32°26' W 091°01'5 4.6
2016-Jan-24 18:33N 32°21' W 090°59'4 4.3
2016-Jan-24 17:33N 32°20' W 090°55'3 2.9
2016-Jan-24 16:33N 32°18' W 090°56'0 0.0
2016-Jan-24 15:33N 32°18' W 090°56'0 0.0
2016-Jan-24 14:33N 32°18' W 090°56'1 1.5
2016-Jan-24 13:33N 32°16' W 090°57'5 5.0
2016-Jan-24 12:33N 32°12' W 090°59'4 4.1
2016-Jan-24 11:33N 32°08' W 091°01'4 3.9
2016-Jan-24 10:33N 32°08' W 091°05'5 4.7
2016-Jan-24 09:33N 32°03' W 091°04'5 4.3
2016-Jan-24 08:22N 31°59' W 091°07'  
Track history (hours):
 
Tides and Currents Weather Stations Pressure Air Temp Water Temp Dewpoint Dewpoint Depression Visibility Wind Speed Wind Dir Waves Ship Positions

P. B. Shah

Owner: INGRAM BARGE COMPANY, Nashville, TN. More information available from US FCC via Universal Licensing System and Coast Guard Vessel Documentation Center.

Last reported at 2016-Feb-02 00:15 UTC. Time now 2016-Feb-09 13:46 UTC.
Position N 31°54' W 091°12'.

Length 46 m; draft 3.1 m.

Type: Towing. MMSI: 366961480.

Date/timePositionNaut miles runAvg speedWind from/ knotsBaromVisibWave heightAir tempDewpointWater temp
2016-Feb-02 00:15N 31°54' W 091°12'7 8.2
2016-Feb-01 23:26N 31°59' W 091°07'7 7.7
2016-Feb-01 22:33N 32°06' W 091°05'6 5.7
2016-Feb-01 21:33N 32°09' W 091°00'9 9.3
2016-Feb-01 20:33N 32°18' W 090°56'4 3.7
2016-Feb-01 19:33N 32°21' W 090°58'0 0.1
2016-Feb-01 18:33N 32°21' W 090°58'0 0.0
2016-Feb-01 17:33N 32°21' W 090°58'0 0.0
2016-Feb-01 16:33N 32°21' W 090°58'0 0.0
2016-Feb-01 15:33N 32°21' W 090°58'0 0.0
2016-Feb-01 14:33N 32°21' W 090°58'0 0.0
2016-Feb-01 13:33N 32°21' W 090°58'0 0.0
2016-Feb-01 12:33N 32°21' W 090°58'0 0.0
2016-Feb-01 11:33N 32°21' W 090°58'0 0.0
2016-Feb-01 10:33N 32°21' W 090°58'0 0.0
2016-Feb-01 09:33N 32°21' W 090°58'0 0.0
2016-Feb-01 08:33N 32°21' W 090°58'0 0.0
2016-Feb-01 07:33N 32°21' W 090°58'0 0.0
2016-Feb-01 06:33N 32°21' W 090°58'0 0.0
2016-Feb-01 05:33N 32°21' W 090°58'0 0.0
2016-Feb-01 04:33N 32°21' W 090°58'0 0.4
2016-Feb-01 03:33N 32°21' W 090°58'0 0.0
2016-Feb-01 02:33N 32°21' W 090°58'1 0.6
2016-Feb-01 01:33N 32°21' W 090°59'7 7.1
2016-Feb-01 00:33N 32°27' W 091°04'8 8.0
2016-Jan-31 23:32N 32°34' W 091°07'9 6.7
2016-Jan-31 22:11N 32°43' W 091°03'  
2016-Jan-25 04:03N 32°57' W 091°04'20 3.7
2016-Jan-24 22:33N 32°37' W 091°09'5 4.9
2016-Jan-24 21:33N 32°32' W 091°06'4 4.4
2016-Jan-24 20:33N 32°28' W 091°06'5 4.9
2016-Jan-24 19:33N 32°26' W 091°01'5 4.6
2016-Jan-24 18:33N 32°21' W 090°59'4 4.3
2016-Jan-24 17:33N 32°20' W 090°55'3 2.9
2016-Jan-24 16:33N 32°18' W 090°56'0 0.0
2016-Jan-24 15:33N 32°18' W 090°56'0 0.0
2016-Jan-24 14:33N 32°18' W 090°56'1 1.5
2016-Jan-24 13:33N 32°16' W 090°57'5 5.0
2016-Jan-24 12:33N 32°12' W 090°59'4 4.1
2016-Jan-24 11:33N 32°08' W 091°01'4 3.9
2016-Jan-24 10:33N 32°08' W 091°05'5 4.7
2016-Jan-24 09:33N 32°03' W 091°04'5 4.3
2016-Jan-24 08:22N 31°59' W 091°07'  

Dump ship's entire track history